Terminal Aerodrome Forecast
Issued by NWS Raleigh/Durham, NC

Home | Current Version | Previous Version | Text Only | Print | Product List | Glossary On
Versions: 1 2 3 4 5 6 7 8 9 10 11 12 13 14 15 16 17 18 19 20 21 22 23 24 25 26 27 28 29 30 31 32 33 34 35 36 37
235
FTUS42 KRAH 061738
TAFFAY
TAF
KFAY 061738Z 0618/0718 03005KT P6SM SCT050 OVC120
     FM070600 02008KT 6SM -RA SCT030 OVC070
     FM070900 01013KT 4SM -RASN OVC025
     FM071500 01016G23KT 4SM -RA BR OVC025=

USA.gov is the U.S. government's official web portal to all federal, state and local government web resources and services.